City Of Vicksburg — WDC2660 — position and weather

sailwx.info

Track history (hours):
 
Tides and Currents Weather Stations Pressure Air Temp Water Temp Dewpoint Dewpoint Depression Visibility Wind Speed Wind Dir Waves Ship Positions

City Of Vicksburg

Owner: Kirby Inland Marine LP, Houston, TX. More information available from US FCC via Universal Licensing System and Coast Guard Vessel Documentation Center.

Last reported at 2017-Nov-30 14:09 UTC. Time now 2017-Dec-12 02:46 UTC.
Position N 33°05' W 091°10'.
Warning: this ship's position is 11 days out of date.

Length 349 m; draft 3 m.

Type: . MMSI: 366996120.

Date/timePositionNaut miles runAvg speedWind from/ knotsBaromVisibWave heightAir tempDewpointWater temp
2017-Nov-30 14:09N 33°05' W 091°10'22 1.8
2017-Nov-30 02:05N 32°44' W 091°04'4 3.7
2017-Nov-30 01:03N 32°40' W 091°06'1 4.9
2017-Nov-30 00:51N 32°40' W 091°07'1 4.0
2017-Nov-30 00:30N 32°40' W 091°08'2 3.7
2017-Nov-30 00:00N 32°38' W 091°09'2 3.3
2017-Nov-29 23:30N 32°36' W 091°09'0 0.1
2017-Nov-29 23:00N 32°36' W 091°09'0 0.0
2017-Nov-29 22:30N 32°36' W 091°09'0 0.0
2017-Nov-29 22:00N 32°36' W 091°09'0 0.0
2017-Nov-29 21:30N 32°36' W 091°09'0 0.0
2017-Nov-29 21:00N 32°36' W 091°09'0 0.1
2017-Nov-29 20:30N 32°36' W 091°09'1 3.0
2017-Nov-29 20:00N 32°35' W 091°08'2 4.5
2017-Nov-29 19:30N 32°33' W 091°06'2 4.3
2017-Nov-29 19:00N 32°31' W 091°06'3 5.2
2017-Nov-29 18:30N 32°29' W 091°07'2 4.7
2017-Nov-29 18:00N 32°27' W 091°05'2 4.7
2017-Nov-29 17:30N 32°26' W 091°02'2 4.6
2017-Nov-29 17:00N 32°25' W 090°60'2 4.1
2017-Nov-29 16:30N 32°23' W 090°60'2 3.3
2017-Nov-29 16:00N 32°21' W 091°00'2 4.9
2017-Nov-29 15:30N 32°21' W 090°57'2 4.7
2017-Nov-29 15:00N 32°20' W 090°54'2 3.9
2017-Nov-29 14:30N 32°19' W 090°55'1 2.0
2017-Nov-29 14:00N 32°18' W 090°56'1 1.5
2017-Nov-29 13:30N 32°17' W 090°56'2 4.7
2017-Nov-29 13:00N 32°16' W 090°58'1 2.9
2017-Nov-29 12:30N 32°14' W 090°59'1 2.2
2017-Nov-29 12:00N 32°13' W 090°59'2 4.7
2017-Nov-29 11:30N 32°11' W 090°60'2 4.7
2017-Nov-29 11:00N 32°09' W 091°00'2 4.3
2017-Nov-29 10:30N 32°07' W 091°02'2 4.7
2017-Nov-29 10:00N 32°08' W 091°05'2 4.0
2017-Nov-29 09:30N 32°07' W 091°07'2 4.5
2017-Nov-29 09:00N 32°05' W 091°05'2 1.3
2017-Nov-29 07:05N 32°03' W 091°03'0 5.0
2017-Nov-29 07:00N 32°03' W 091°04'2 4.2
2017-Nov-29 06:30N 32°01' W 091°05'6 4.4
2017-Nov-29 05:07N 31°58' W 091°11'0 4.6
2017-Nov-29 05:00N 31°58' W 091°11'  
2017-Nov-24 15:29N 31°41' W 091°24'6 8.3
2017-Nov-24 14:44N 31°47' W 091°21'2 8.8
2017-Nov-24 14:27N 31°50' W 091°21'3 7.4
2017-Nov-24 14:01N 31°51' W 091°18'5 8.3
2017-Nov-24 13:24N 31°54' W 091°12'3 8.2
2017-Nov-24 13:00N 31°57' W 091°12'4 7.5
2017-Nov-24 12:28N 31°59' W 091°08'4 7.9
2017-Nov-24 12:00N 32°01' W 091°04'4 7.8
2017-Nov-24 11:31N 32°05' W 091°05'3 5.9
2017-Nov-24 11:01N 32°08' W 091°05'4 7.6
2017-Nov-24 10:31N 32°08' W 091°01'4 8.7
2017-Nov-24 10:01N 32°12' W 090°59'4 8.5
2017-Nov-24 09:31N 32°16' W 090°58'4 8.7
2017-Nov-24 09:01N 32°19' W 090°54'3 6.5
2017-Nov-24 08:31N 32°21' W 090°57'3 6.3
2017-Nov-24 08:01N 32°23' W 090°60'4 7.4
2017-Nov-24 07:31N 32°26' W 091°03'4 8.7
2017-Nov-24 07:01N 32°29' W 091°07'4 8.9
2017-Nov-24 06:31N 32°33' W 091°06'4 8.6
2017-Nov-24 06:01N 32°36' W 091°09'9 5.1
2017-Nov-24 04:13N 32°45' W 091°09'  
Track history (hours):
 
Tides and Currents Weather Stations Pressure Air Temp Water Temp Dewpoint Dewpoint Depression Visibility Wind Speed Wind Dir Waves Ship Positions

City Of Vicksburg

Owner: Kirby Inland Marine LP, Houston, TX. More information available from US FCC via Universal Licensing System and Coast Guard Vessel Documentation Center.

Last reported at 2017-Nov-30 14:09 UTC. Time now 2017-Dec-12 02:46 UTC.
Position N 33°05' W 091°10'.
Warning: this ship's position is 11 days out of date.

Length 349 m; draft 3 m.

Type: . MMSI: 366996120.

Date/timePositionNaut miles runAvg speedWind from/ knotsBaromVisibWave heightAir tempDewpointWater temp
2017-Nov-30 14:09N 33°05' W 091°10'22 1.8
2017-Nov-30 02:05N 32°44' W 091°04'4 3.7
2017-Nov-30 01:03N 32°40' W 091°06'1 4.9
2017-Nov-30 00:51N 32°40' W 091°07'1 4.0
2017-Nov-30 00:30N 32°40' W 091°08'2 3.7
2017-Nov-30 00:00N 32°38' W 091°09'2 3.3
2017-Nov-29 23:30N 32°36' W 091°09'0 0.1
2017-Nov-29 23:00N 32°36' W 091°09'0 0.0
2017-Nov-29 22:30N 32°36' W 091°09'0 0.0
2017-Nov-29 22:00N 32°36' W 091°09'0 0.0
2017-Nov-29 21:30N 32°36' W 091°09'0 0.0
2017-Nov-29 21:00N 32°36' W 091°09'0 0.1
2017-Nov-29 20:30N 32°36' W 091°09'1 3.0
2017-Nov-29 20:00N 32°35' W 091°08'2 4.5
2017-Nov-29 19:30N 32°33' W 091°06'2 4.3
2017-Nov-29 19:00N 32°31' W 091°06'3 5.2
2017-Nov-29 18:30N 32°29' W 091°07'2 4.7
2017-Nov-29 18:00N 32°27' W 091°05'2 4.7
2017-Nov-29 17:30N 32°26' W 091°02'2 4.6
2017-Nov-29 17:00N 32°25' W 090°60'2 4.1
2017-Nov-29 16:30N 32°23' W 090°60'2 3.3
2017-Nov-29 16:00N 32°21' W 091°00'2 4.9
2017-Nov-29 15:30N 32°21' W 090°57'2 4.7
2017-Nov-29 15:00N 32°20' W 090°54'2 3.9
2017-Nov-29 14:30N 32°19' W 090°55'1 2.0
2017-Nov-29 14:00N 32°18' W 090°56'1 1.5
2017-Nov-29 13:30N 32°17' W 090°56'2 4.7
2017-Nov-29 13:00N 32°16' W 090°58'1 2.9
2017-Nov-29 12:30N 32°14' W 090°59'1 2.2
2017-Nov-29 12:00N 32°13' W 090°59'2 4.7
2017-Nov-29 11:30N 32°11' W 090°60'2 4.7
2017-Nov-29 11:00N 32°09' W 091°00'2 4.3
2017-Nov-29 10:30N 32°07' W 091°02'2 4.7
2017-Nov-29 10:00N 32°08' W 091°05'2 4.0
2017-Nov-29 09:30N 32°07' W 091°07'2 4.5
2017-Nov-29 09:00N 32°05' W 091°05'2 1.3
2017-Nov-29 07:05N 32°03' W 091°03'0 5.0
2017-Nov-29 07:00N 32°03' W 091°04'2 4.2
2017-Nov-29 06:30N 32°01' W 091°05'6 4.4
2017-Nov-29 05:07N 31°58' W 091°11'0 4.6
2017-Nov-29 05:00N 31°58' W 091°11'  
2017-Nov-24 15:29N 31°41' W 091°24'6 8.3
2017-Nov-24 14:44N 31°47' W 091°21'2 8.8
2017-Nov-24 14:27N 31°50' W 091°21'3 7.4
2017-Nov-24 14:01N 31°51' W 091°18'5 8.3
2017-Nov-24 13:24N 31°54' W 091°12'3 8.2
2017-Nov-24 13:00N 31°57' W 091°12'4 7.5
2017-Nov-24 12:28N 31°59' W 091°08'4 7.9
2017-Nov-24 12:00N 32°01' W 091°04'4 7.8
2017-Nov-24 11:31N 32°05' W 091°05'3 5.9
2017-Nov-24 11:01N 32°08' W 091°05'4 7.6
2017-Nov-24 10:31N 32°08' W 091°01'4 8.7
2017-Nov-24 10:01N 32°12' W 090°59'4 8.5
2017-Nov-24 09:31N 32°16' W 090°58'4 8.7
2017-Nov-24 09:01N 32°19' W 090°54'3 6.5
2017-Nov-24 08:31N 32°21' W 090°57'3 6.3
2017-Nov-24 08:01N 32°23' W 090°60'4 7.4
2017-Nov-24 07:31N 32°26' W 091°03'4 8.7
2017-Nov-24 07:01N 32°29' W 091°07'4 8.9
2017-Nov-24 06:31N 32°33' W 091°06'4 8.6
2017-Nov-24 06:01N 32°36' W 091°09'9 5.1
2017-Nov-24 04:13N 32°45' W 091°09'  

Dump ship's entire track history